sensor_id;sensor_type;location;lat;lon;timestamp;pressure;altitude;pressure_sealevel;temperature;humidity
49945;BME280;35838;49.134;9.212;2023-02-17T02:20:31;100668.47;;;8.52;66.44
49945;BME280;35838;49.134;9.212;2023-02-17T02:22:15;100666.78;;;8.54;66.71
49945;BME280;35838;49.134;9.212;2023-02-17T02:27:44;100656.84;;;8.78;65.68
49945;BME280;35838;49.134;9.212;2023-02-17T02:31:18;100645.69;;;8.83;64.78
49945;BME280;35838;49.134;9.212;2023-02-17T02:33:01;100643.09;;;8.83;64.39
49945;BME280;35838;49.134;9.212;2023-02-17T02:34:37;100640.59;;;8.87;64.17
49945;BME280;35838;49.134;9.212;2023-02-17T02:36:16;100638.97;;;8.96;64.07
49945;BME280;35838;49.134;9.212;2023-02-17T02:37:52;100635.53;;;8.97;64.11
49945;BME280;35838;49.134;9.212;2023-02-17T02:39:27;100633.03;;;9.04;64.00
49945;BME280;35838;49.134;9.212;2023-02-17T02:41:03;100633.03;;;9.04;64.11
49945;BME280;35838;49.134;9.212;2023-02-17T02:42:38;100624.44;;;9.05;64.09
49945;BME280;35838;49.134;9.212;2023-02-17T02:44:11;100630.31;;;8.93;63.63
49945;BME280;35838;49.134;9.212;2023-02-17T02:45:45;100630.44;;;9.03;63.57
49945;BME280;35838;49.134;9.212;2023-02-17T02:47:41;100631.31;;;9.03;63.90
49945;BME280;35838;49.134;9.212;2023-02-17T02:49:15;100625.31;;;9.06;63.21
49945;BME280;35838;49.134;9.212;2023-02-17T02:50:57;100633.16;;;9.11;63.16
49945;BME280;35838;49.134;9.212;2023-02-17T02:52:35;100620.13;;;9.06;63.63
49945;BME280;35838;49.134;9.212;2023-02-17T02:56:18;100617.69;;;9.17;63.25
49945;BME280;35838;49.134;9.212;2023-02-17T02:57:53;100614.97;;;9.07;63.35
49945;BME280;35838;49.134;9.212;2023-02-17T02:59:32;100610.56;;;9.00;63.36
49945;BME280;35838;49.134;9.212;2023-02-17T03:01:12;100619.13;;;8.96;63.54
49945;BME280;35838;49.134;9.212;2023-02-17T03:02:48;100608.81;;;8.99;63.75
49945;BME280;35838;49.134;9.212;2023-02-17T03:04:26;100614.97;;;9.07;63.30
49945;BME280;35838;49.134;9.212;2023-02-17T03:06:07;100612.31;;;9.01;63.20
49945;BME280;35838;49.134;9.212;2023-02-17T03:07:45;100618.41;;;9.08;63.10
49945;BME280;35838;49.134;9.212;2023-02-17T03:09:20;100608.63;;;8.87;63.69
49945;BME280;35838;49.134;9.212;2023-02-17T03:10:54;100612.25;;;8.98;64.09
49945;BME280;35838;49.134;9.212;2023-02-17T03:12:29;100607.13;;;9.03;63.83
49945;BME280;35838;49.134;9.212;2023-02-17T03:14:03;100611.47;;;9.04;63.51
49945;BME280;35838;49.134;9.212;2023-02-17T03:15:37;100606.34;;;9.08;62.91
49945;BME280;35838;49.134;9.212;2023-02-17T03:17:11;100598.53;;;9.05;63.01
49945;BME280;35838;49.134;9.212;2023-02-17T03:18:44;100602.91;;;9.09;63.03
49945;BME280;35838;49.134;9.212;2023-02-17T03:20:18;100595.94;;;9.04;63.46
49945;BME280;35838;49.134;9.212;2023-02-17T03:21:52;100596.84;;;9.07;63.71
49945;BME280;35838;49.134;9.212;2023-02-17T03:23:25;100605.47;;;9.08;63.40
49945;BME280;35838;49.134;9.212;2023-02-17T03:24:59;100619.22;;;9.02;63.58
49945;BME280;35838;49.134;9.212;2023-02-17T03:26:32;100607.78;;;8.86;63.84
49945;BME280;35838;49.134;9.212;2023-02-17T03:28:03;100607.00;;;8.92;64.18
49945;BME280;35838;49.134;9.212;2023-02-17T03:29:37;100598.50;;;9.02;64.07
49945;BME280;35838;49.134;9.212;2023-02-17T03:31:11;100603.69;;;9.04;63.85
49945;BME280;35838;49.134;9.212;2023-02-17T03:32:44;100611.47;;;9.02;64.18
49945;BME280;35838;49.134;9.212;2023-02-17T03:34:18;100610.31;;;8.83;64.23
49945;BME280;35838;49.134;9.212;2023-02-17T03:35:54;100610.34;;;8.85;64.46
49945;BME280;35838;49.134;9.212;2023-02-17T03:37:28;100612.13;;;8.89;64.68
49945;BME280;35838;49.134;9.212;2023-02-17T03:39:02;100605.91;;;8.76;64.90
49945;BME280;35838;49.134;9.212;2023-02-17T03:40:35;100608.47;;;8.76;65.32
49945;BME280;35838;49.134;9.212;2023-02-17T03:42:09;100613.66;;;8.77;65.16
49945;BME280;35838;49.134;9.212;2023-02-17T03:43:40;100615.56;;;8.88;64.87
49945;BME280;35838;49.134;9.212;2023-02-17T03:45:14;100610.47;;;8.94;64.57
49945;BME280;35838;49.134;9.212;2023-02-17T03:46:45;100619.16;;;8.99;64.45
49945;BME280;35838;49.134;9.212;2023-02-17T03:48:19;100619.22;;;9.02;63.96
49945;BME280;35838;49.134;9.212;2023-02-17T03:49:52;100611.97;;;8.80;64.64
49945;BME280;35838;49.134;9.212;2023-02-17T03:51:29;100616.38;;;8.85;65.04
49945;BME280;35838;49.134;9.212;2023-02-17T03:53:02;100617.31;;;8.90;64.83
49945;BME280;35838;49.134;9.212;2023-02-17T03:54:35;100614.78;;;8.95;64.83
49945;BME280;35838;49.134;9.212;2023-02-17T03:56:09;100615.63;;;8.92;64.07
49945;BME280;35838;49.134;9.212;2023-02-17T03:57:40;100615.66;;;8.94;64.29
49945;BME280;35838;49.134;9.212;2023-02-17T03:59:14;100609.66;;;9.00;64.15
49945;BME280;35838;49.134;9.212;2023-02-17T04:00:47;100618.31;;;9.00;64.23
49945;BME280;35838;49.134;9.212;2023-02-17T04:02:21;100616.72;;;9.08;64.18
49945;BME280;35838;49.134;9.212;2023-02-17T04:03:54;100612.44;;;9.14;64.11
49945;BME280;35838;49.134;9.212;2023-02-17T04:05:28;100615.16;;;9.21;63.69
49945;BME280;35838;49.134;9.212;2023-02-17T04:07:04;100615.13;;;9.20;63.64
49945;BME280;35838;49.134;9.212;2023-02-17T04:08:38;100622.94;;;9.23;63.71
49945;BME280;35838;49.134;9.212;2023-02-17T04:10:12;100621.19;;;9.20;63.71
49945;BME280;35838;49.134;9.212;2023-02-17T04:11:43;100616.78;;;9.13;63.66
49945;BME280;35838;49.134;9.212;2023-02-17T04:13:16;100615.09;;;9.17;63.83
49945;BME280;35838;49.134;9.212;2023-02-17T04:14:47;100622.16;;;9.29;63.57
49945;BME280;35838;49.134;9.212;2023-02-17T04:16:21;100617.84;;;9.31;63.80
49945;BME280;35838;49.134;9.212;2023-02-17T04:17:54;100613.69;;;9.42;63.11
49945;BME280;35838;49.134;9.212;2023-02-17T04:19:26;100611.09;;;9.44;63.00
49945;BME280;35838;49.134;9.212;2023-02-17T04:20:59;100607.66;;;9.43;62.97
49945;BME280;35838;49.134;9.212;2023-02-17T04:22:35;100609.28;;;9.36;62.86
49945;BME280;35838;49.134;9.212;2023-02-17T04:24:09;100613.69;;;9.44;62.90
49945;BME280;35838;49.134;9.212;2023-02-17T04:25:42;100606.78;;;9.44;63.32
49945;BME280;35838;49.134;9.212;2023-02-17T04:27:16;100605.97;;;9.48;63.30
49945;BME280;35838;49.134;9.212;2023-02-17T04:28:50;100612.00;;;9.47;63.48
49945;BME280;35838;49.134;9.212;2023-02-17T04:30:23;100599.94;;;9.49;63.55
49945;BME280;35838;49.134;9.212;2023-02-17T04:31:57;100602.41;;;9.38;64.45
49945;BME280;35838;49.134;9.212;2023-02-17T04:33:30;100601.66;;;9.49;65.54
49945;BME280;35838;49.134;9.212;2023-02-17T04:35:04;100600.91;;;9.56;65.79
49945;BME280;35838;49.134;9.212;2023-02-17T04:36:38;100600.91;;;9.59;65.69
49945;BME280;35838;49.134;9.212;2023-02-17T04:38:14;100606.06;;;9.56;65.55
49945;BME280;35838;49.134;9.212;2023-02-17T04:39:48;100603.50;;;9.57;65.39
49945;BME280;35838;49.134;9.212;2023-02-17T04:41:22;100602.69;;;9.63;64.91
49945;BME280;35838;49.134;9.212;2023-02-17T04:42:55;100599.22;;;9.61;65.10
49945;BME280;35838;49.134;9.212;2023-02-17T04:44:26;100602.69;;;9.63;64.75
49945;BME280;35838;49.134;9.212;2023-02-17T04:46:00;100604.44;;;9.64;64.90
49945;BME280;35838;49.134;9.212;2023-02-17T04:47:33;100603.53;;;9.61;65.10
49945;BME280;35838;49.134;9.212;2023-02-17T04:49:05;100606.13;;;9.62;65.32
49945;BME280;35838;49.134;9.212;2023-02-17T04:50:38;100599.16;;;9.56;65.61
49945;BME280;35838;49.134;9.212;2023-02-17T04:52:12;100605.19;;;9.57;65.68
49945;BME280;35838;49.134;9.212;2023-02-17T04:53:48;100600.91;;;9.59;65.39
49945;BME280;35838;49.134;9.212;2023-02-17T04:55:22;100603.50;;;9.59;66.51
49945;BME280;35838;49.134;9.212;2023-02-17T04:56:53;100609.56;;;9.61;66.56
49945;BME280;35838;49.134;9.212;2023-02-17T04:58:27;100609.47;;;9.52;68.19
49945;BME280;35838;49.134;9.212;2023-02-17T05:00:00;100612.09;;;9.55;68.70
49945;BME280;35838;49.134;9.212;2023-02-17T05:01:34;100609.41;;;9.46;69.96
49945;BME280;35838;49.134;9.212;2023-02-17T05:03:08;100607.69;;;9.48;70.38
49945;BME280;35838;49.134;9.212;2023-02-17T05:04:42;100608.47;;;9.39;70.79
49945;BME280;35838;49.134;9.212;2023-02-17T05:06:15;100612.72;;;9.35;71.51
49945;BME280;35838;49.134;9.212;2023-02-17T05:07:49;100608.50;;;9.42;71.96
49945;BME280;35838;49.134;9.212;2023-02-17T05:09:25;100614.59;;;9.46;72.07
49945;BME280;35838;49.134;9.212;2023-02-17T05:10:59;100613.75;;;9.50;72.10
49945;BME280;35838;49.134;9.212;2023-02-17T05:12:32;100612.09;;;9.55;72.46
49945;BME280;35838;49.134;9.212;2023-02-17T05:14:03;100620.78;;;9.59;72.47
49945;BME280;35838;49.134;9.212;2023-02-17T05:15:37;100613.13;;;9.69;72.64
49945;BME280;35838;49.134;9.212;2023-02-17T05:17:11;100617.34;;;9.60;73.13
49945;BME280;35838;49.134;9.212;2023-02-17T05:18:44;100619.91;;;9.58;73.54
49945;BME280;35838;49.134;9.212;2023-02-17T05:20:18;100616.50;;;9.65;73.70
49945;BME280;35838;49.134;9.212;2023-02-17T05:21:52;100622.53;;;9.60;74.05
49945;BME280;35838;49.134;9.212;2023-02-17T05:23:25;100619.03;;;9.56;74.28
49945;BME280;35838;49.134;9.212;2023-02-17T05:25:02;100626.88;;;9.62;75.07
49945;BME280;35838;49.134;9.212;2023-02-17T05:26:36;100622.50;;;9.58;75.81
49945;BME280;35838;49.134;9.212;2023-02-17T05:28:09;100620.84;;;9.65;75.76
49945;BME280;35838;49.134;9.212;2023-02-17T05:29:43;100621.69;;;9.61;75.81
49945;BME280;35838;49.134;9.212;2023-02-17T05:31:16;100623.38;;;9.60;76.48
49945;BME280;35838;49.134;9.212;2023-02-17T05:32:50;100627.75;;;9.64;76.25
49945;BME280;35838;49.134;9.212;2023-02-17T05:34:24;100632.06;;;9.62;76.41
49945;BME280;35838;49.134;9.212;2023-02-17T05:35:59;100626.03;;;9.66;76.51
49945;BME280;35838;49.134;9.212;2023-02-17T05:37:33;100628.66;;;9.68;76.64
49945;BME280;35838;49.134;9.212;2023-02-17T05:39:04;100625.22;;;9.70;76.52
49945;BME280;35838;49.134;9.212;2023-02-17T05:40:41;100626.09;;;9.71;76.37
49945;BME280;35838;49.134;9.212;2023-02-17T05:42:14;100626.97;;;9.71;76.33
49945;BME280;35838;49.134;9.212;2023-02-17T05:43:48;100630.47;;;9.74;76.50
49945;BME280;35838;49.134;9.212;2023-02-17T05:45:22;100634.72;;;9.70;76.28
49945;BME280;35838;49.134;9.212;2023-02-17T05:46:55;100626.13;;;9.74;76.39
49945;BME280;35838;49.134;9.212;2023-02-17T05:48:29;100624.50;;;9.84;75.93
49945;BME280;35838;49.134;9.212;2023-02-17T05:50:03;100627.91;;;9.78;75.92
49945;BME280;35838;49.134;9.212;2023-02-17T05:51:37;100625.34;;;9.83;75.93
49945;BME280;35838;49.134;9.212;2023-02-17T05:53:10;100631.38;;;9.79;75.98
49945;BME280;35838;49.134;9.212;2023-02-17T05:54:44;100632.31;;;9.85;76.05
49945;BME280;35838;49.134;9.212;2023-02-17T05:56:20;100638.41;;;9.91;75.74
49945;BME280;35838;49.134;9.212;2023-02-17T05:57:54;100641.03;;;9.97;75.72
49945;BME280;35838;49.134;9.212;2023-02-17T05:59:27;100641.03;;;9.95;75.53
49945;BME280;35838;49.134;9.212;2023-02-17T06:01:01;100635.88;;;9.97;75.67
49945;BME280;35838;49.134;9.212;2023-02-17T06:02:39;100637.63;;;9.99;75.30
49945;BME280;35838;49.134;9.212;2023-02-17T06:04:13;100642.72;;;9.90;75.32
49945;BME280;35838;49.134;9.212;2023-02-17T06:05:46;100635.81;;;9.92;75.19
49945;BME280;35838;49.134;9.212;2023-02-17T06:07:20;100634.91;;;9.87;75.47
49945;BME280;35838;49.134;9.212;2023-02-17T06:08:53;100635.84;;;9.95;75.13
49945;BME280;35838;49.134;9.212;2023-02-17T06:10:27;100636.78;;;10.00;74.47
49945;BME280;35838;49.134;9.212;2023-02-17T06:12:04;100639.25;;;9.90;74.38
49945;BME280;35838;49.134;9.212;2023-02-17T06:13:37;100631.56;;;9.97;73.82
49945;BME280;35838;49.134;9.212;2023-02-17T06:15:11;100630.72;;;9.98;73.46
49945;BME280;35838;49.134;9.212;2023-02-17T06:16:44;100635.91;;;10.01;72.91
49945;BME280;35838;49.134;9.212;2023-02-17T06:18:18;100634.22;;;10.03;72.60
49945;BME280;35838;49.134;9.212;2023-02-17T06:19:52;100631.59;;;10.02;72.01
49945;BME280;35838;49.134;9.212;2023-02-17T06:21:25;100633.22;;;9.92;71.95
49945;BME280;35838;49.134;9.212;2023-02-17T06:22:59;100640.09;;;9.88;72.03
49945;BME280;35838;49.134;9.212;2023-02-17T06:24:33;100642.72;;;9.90;72.26
49945;BME280;35838;49.134;9.212;2023-02-17T06:26:06;100632.31;;;9.88;71.84
49945;BME280;35838;49.134;9.212;2023-02-17T06:27:43;100639.28;;;9.91;72.09
49945;BME280;35838;49.134;9.212;2023-02-17T06:29:17;100643.59;;;9.92;71.81
49945;BME280;35838;49.134;9.212;2023-02-17T06:30:51;100640.19;;;9.98;71.47
49945;BME280;35838;49.134;9.212;2023-02-17T06:32:25;100643.72;;;10.03;71.45
49945;BME280;35838;49.134;9.212;2023-02-17T06:33:58;100644.59;;;10.03;71.18
49945;BME280;35838;49.134;9.212;2023-02-17T06:35:32;100642.91;;;10.09;71.02
49945;BME280;35838;49.134;9.212;2023-02-17T06:37:05;100639.34;;;9.97;71.29
49945;BME280;35838;49.134;9.212;2023-02-17T06:38:39;100648.06;;;10.06;71.25
49945;BME280;35838;49.134;9.212;2023-02-17T06:40:13;100643.78;;;10.09;71.46
49945;BME280;35838;49.134;9.212;2023-02-17T06:41:47;100649.81;;;10.08;71.26
49945;BME280;35838;49.134;9.212;2023-02-17T06:43:23;100647.31;;;10.16;71.00
49945;BME280;35838;49.134;9.212;2023-02-17T06:44:57;100649.91;;;10.17;70.90
49945;BME280;35838;49.134;9.212;2023-02-17T06:46:32;100649.84;;;10.13;71.24
49945;BME280;35838;49.134;9.212;2023-02-17T06:48:06;100648.03;;;10.02;71.83
49945;BME280;35838;49.134;9.212;2023-02-17T06:49:40;100651.56;;;10.08;71.82
49945;BME280;35838;49.134;9.212;2023-02-17T06:51:13;100649.81;;;10.08;71.83
49945;BME280;35838;49.134;9.212;2023-02-17T06:52:47;100646.28;;;10.00;72.01
49945;BME280;35838;49.134;9.212;2023-02-17T06:54:21;100654.16;;;10.09;71.71
49945;BME280;35838;49.134;9.212;2023-02-17T06:55:54;100648.13;;;10.12;71.80
49945;BME280;35838;49.134;9.212;2023-02-17T06:57:28;100654.06;;;9.98;72.14
49945;BME280;35838;49.134;9.212;2023-02-17T06:59:04;100653.00;;;9.81;73.18
49945;BME280;35838;49.134;9.212;2023-02-17T07:00:38;100654.84;;;9.91;73.41
49945;BME280;35838;49.134;9.212;2023-02-17T07:02:12;100656.47;;;9.83;73.68
49945;BME280;35838;49.134;9.212;2023-02-17T07:03:46;100657.44;;;9.91;73.83
49945;BME280;35838;49.134;9.212;2023-02-17T07:05:19;100654.91;;;9.96;73.94
49945;BME280;35838;49.134;9.212;2023-02-17T07:06:53;100661.84;;;9.98;74.05
49945;BME280;35838;49.134;9.212;2023-02-17T07:08:27;100665.22;;;9.94;74.08
49945;BME280;35838;49.134;9.212;2023-02-17T07:10:00;100660.81;;;9.85;74.82
49945;BME280;35838;49.134;9.212;2023-02-17T07:11:34;100660.03;;;9.91;75.13
49945;BME280;35838;49.134;9.212;2023-02-17T07:13:07;100665.22;;;9.94;75.09
49945;BME280;35838;49.134;9.212;2023-02-17T07:14:44;100666.81;;;9.83;75.67
49945;BME280;35838;49.134;9.212;2023-02-17T07:16:17;100665.22;;;9.91;75.86
49945;BME280;35838;49.134;9.212;2023-02-17T07:17:51;100660.91;;;9.93;76.56
49945;BME280;35838;49.134;9.212;2023-02-17T07:19:24;100665.31;;;10.00;76.83
49945;BME280;35838;49.134;9.212;2023-02-17T07:20:58;100674.84;;;10.03;76.95
49945;BME280;35838;49.134;9.212;2023-02-17T07:22:32;100667.03;;;10.01;77.28
49945;BME280;35838;49.134;9.212;2023-02-17T07:24:05;100669.63;;;10.01;77.89
49945;BME280;35838;49.134;9.212;2023-02-17T07:25:39;100673.06;;;9.97;78.89
49945;BME280;35838;49.134;9.212;2023-02-17T07:27:13;100665.28;;;9.97;79.77
49945;BME280;35838;49.134;9.212;2023-02-17T07:28:46;100663.53;;;9.96;80.13
49945;BME280;35838;49.134;9.212;2023-02-17T07:30:22;100665.19;;;9.88;81.22
49945;BME280;35838;49.134;9.212;2023-02-17T07:31:56;100668.66;;;9.92;81.69
49945;BME280;35838;49.134;9.212;2023-02-17T07:33:30;100673.91;;;9.96;81.96
49945;BME280;35838;49.134;9.212;2023-02-17T07:35:04;100670.41;;;9.93;82.80
49945;BME280;35838;49.134;9.212;2023-02-17T07:36:38;100674.69;;;9.89;83.10
49945;BME280;35838;49.134;9.212;2023-02-17T07:38:12;100672.09;;;9.89;83.66
49945;BME280;35838;49.134;9.212;2023-02-17T07:39:45;100673.75;;;9.84;84.18
49945;BME280;35838;49.134;9.212;2023-02-17T07:41:19;100678.19;;;9.93;84.09
49945;BME280;35838;49.134;9.212;2023-02-17T07:42:55;100681.63;;;9.92;84.18
49945;BME280;35838;49.134;9.212;2023-02-17T07:44:29;100685.06;;;9.91;84.31
49945;BME280;35838;49.134;9.212;2023-02-17T07:46:06;100678.09;;;9.85;84.57
49945;BME280;35838;49.134;9.212;2023-02-17T07:47:39;100696.28;;;9.88;84.85
49945;BME280;35838;49.134;9.212;2023-02-17T07:49:13;100677.25;;;9.84;84.87
49945;BME280;35838;49.134;9.212;2023-02-17T07:50:47;100685.81;;;9.79;85.42
49945;BME280;35838;49.134;9.212;2023-02-17T07:52:20;100687.56;;;9.81;85.09
49945;BME280;35838;49.134;9.212;2023-02-17T07:53:54;100684.13;;;9.81;85.23
49945;BME280;35838;49.134;9.212;2023-02-17T07:55:29;100690.22;;;9.86;85.26
49945;BME280;35838;49.134;9.212;2023-02-17T07:57:03;100685.97;;;9.91;85.38
49945;BME280;35838;49.134;9.212;2023-02-17T07:58:37;100682.47;;;9.89;85.00
49945;BME280;35838;49.134;9.212;2023-02-17T08:00:12;100692.84;;;9.89;85.30
49945;BME280;35838;49.134;9.212;2023-02-17T08:01:48;100690.22;;;9.86;85.31
49945;BME280;35838;49.134;9.212;2023-02-17T08:03:22;100698.84;;;9.85;85.34
49945;BME280;35838;49.134;9.212;2023-02-17T08:04:56;100698.00;;;9.87;85.41
49945;BME280;35838;49.134;9.212;2023-02-17T08:06:29;100693.75;;;9.93;85.01
49945;BME280;35838;49.134;9.212;2023-02-17T08:08:03;100702.47;;;9.99;84.88
49945;BME280;35838;49.134;9.212;2023-02-17T08:09:49;100705.91;;;10.00;85.44
49945;BME280;35838;49.134;9.212;2023-02-17T08:11:35;100697.34;;;10.04;84.65
49945;BME280;35838;49.134;9.212;2023-02-17T08:13:21;100700.75;;;10.01;84.87
49945;BME280;35838;49.134;9.212;2023-02-17T08:14:56;100708.47;;;9.95;84.97
49945;BME280;35838;49.134;9.212;2023-02-17T20:19:16;100770.25;;;11.29;87.65
49945;BME280;35838;49.134;9.212;2023-02-17T20:20:50;100778.09;;;11.32;87.66
49945;BME280;35838;49.134;9.212;2023-02-17T20:22:24;100774.63;;;11.33;87.44
49945;BME280;35838;49.134;9.212;2023-02-17T20:23:58;100809.31;;;11.35;87.43
49945;BME280;35838;49.134;9.212;2023-02-17T20:25:32;100785.88;;;11.34;87.29
49945;BME280;35838;49.134;9.212;2023-02-17T20:27:05;100790.22;;;11.35;87.28
49945;BME280;35838;49.134;9.212;2023-02-17T20:28:39;100790.25;;;11.36;87.32
49945;BME280;35838;49.134;9.212;2023-02-17T20:30:13;100786.78;;;11.37;87.16
49945;BME280;35838;49.134;9.212;2023-02-17T20:31:47;100785.91;;;11.38;87.05
49945;BME280;35838;49.134;9.212;2023-02-17T20:33:20;100797.16;;;11.36;87.01
49945;BME280;35838;49.134;9.212;2023-02-17T20:34:56;100788.47;;;11.34;86.97
49945;BME280;35838;49.134;9.212;2023-02-17T20:36:30;100796.28;;;11.34;87.13
49945;BME280;35838;49.134;9.212;2023-02-17T20:38:04;100807.56;;;11.36;86.91
49945;BME280;35838;49.134;9.212;2023-02-17T20:39:38;100786.81;;;11.39;86.76
49945;BME280;35838;49.134;9.212;2023-02-17T20:41:13;100787.66;;;11.38;86.64
49945;BME280;35838;49.134;9.212;2023-02-17T20:42:47;100798.91;;;11.35;86.64
49945;BME280;35838;49.134;9.212;2023-02-17T20:44:20;100799.78;;;11.34;86.72
49945;BME280;35838;49.134;9.212;2023-02-17T20:45:55;100798.06;;;11.39;86.80
49945;BME280;35838;49.134;9.212;2023-02-17T20:47:29;100799.78;;;11.36;86.78
49945;BME280;35838;49.134;9.212;2023-02-17T20:49:03;100813.66;;;11.38;86.84
49945;BME280;35838;49.134;9.212;2023-02-17T20:50:40;100817.13;;;11.40;86.81
49945;BME280;35838;49.134;9.212;2023-02-17T20:52:13;100791.13;;;11.37;86.68
49945;BME280;35838;49.134;9.212;2023-02-17T20:53:48;100785.94;;;11.43;86.79
49945;BME280;35838;49.134;9.212;2023-02-17T20:55:22;100801.53;;;11.40;86.70
49945;BME280;35838;49.134;9.212;2023-02-17T20:56:55;100798.06;;;11.36;86.83
49945;BME280;35838;49.134;9.212;2023-02-17T20:58:30;100796.34;;;11.40;86.82
49945;BME280;35838;49.134;9.212;2023-02-17T21:00:05;100784.22;;;11.39;87.00
49945;BME280;35838;49.134;9.212;2023-02-17T21:01:39;100798.06;;;11.39;86.84
49945;BME280;35838;49.134;9.212;2023-02-17T21:03:13;100807.56;;;11.36;86.95
49945;BME280;35838;49.134;9.212;2023-02-17T21:04:46;100799.78;;;11.33;87.20
49945;BME280;35838;49.134;9.212;2023-02-17T21:06:23;100804.97;;;11.36;87.25
49945;BME280;35838;49.134;9.212;2023-02-17T21:07:57;100802.38;;;11.37;87.49
49945;BME280;35838;49.134;9.212;2023-02-17T21:09:31;100804.06;;;11.34;87.28
49945;BME280;35838;49.134;9.212;2023-02-17T21:11:04;100798.88;;;11.34;87.60
49945;BME280;35838;49.134;9.212;2023-02-17T21:12:38;100785.88;;;11.34;87.49
49945;BME280;35838;49.134;9.212;2023-02-17T21:14:12;100791.16;;;11.40;87.57
49945;BME280;35838;49.134;9.212;2023-02-17T21:15:46;100804.06;;;11.32;87.63
49945;BME280;35838;49.134;9.212;2023-02-17T21:17:19;100798.88;;;11.31;87.80
49945;BME280;35838;49.134;9.212;2023-02-17T21:18:53;100800.59;;;11.28;87.75
49945;BME280;35838;49.134;9.212;2023-02-17T21:20:26;100804.03;;;11.29;87.86
49945;BME280;35838;49.134;9.212;2023-02-17T21:22:02;100801.47;;;11.31;87.97
49945;BME280;35838;49.134;9.212;2023-02-17T21:23:36;100804.97;;;11.33;87.61
49945;BME280;35838;49.134;9.212;2023-02-17T21:25:10;100808.41;;;11.32;87.81
49945;BME280;35838;49.134;9.212;2023-02-17T21:26:44;100798.88;;;11.34;87.78
49945;BME280;35838;49.134;9.212;2023-02-17T21:28:17;100786.75;;;11.28;87.96
49945;BME280;35838;49.134;9.212;2023-02-17T21:29:51;100798.88;;;11.32;87.92
49945;BME280;35838;49.134;9.212;2023-02-17T21:31:25;100799.78;;;11.33;87.81
49945;BME280;35838;49.134;9.212;2023-02-17T21:32:58;100796.25;;;11.27;88.17
49945;BME280;35838;49.134;9.212;2023-02-17T21:34:34;100809.25;;;11.29;88.17
49945;BME280;35838;49.134;9.212;2023-02-17T21:36:08;100798.00;;;11.28;88.25
49945;BME280;35838;49.134;9.212;2023-02-17T21:37:45;100801.44;;;11.26;88.07
49945;BME280;35838;49.134;9.212;2023-02-17T21:39:18;100810.13;;;11.28;88.13
49945;BME280;35838;49.134;9.212;2023-02-17T21:40:52;100806.69;;;11.31;87.83
49945;BME280;35838;49.134;9.212;2023-02-17T21:42:25;100801.47;;;11.34;87.68
49945;BME280;35838;49.134;9.212;2023-02-17T21:44:12;100799.72;;;11.29;87.81
49945;BME280;35838;49.134;9.212;2023-02-17T21:45:58;100804.06;;;11.31;87.92
49945;BME280;35838;49.134;9.212;2023-02-17T21:47:32;100795.41;;;11.28;87.81
49945;BME280;35838;49.134;9.212;2023-02-17T21:49:05;100804.03;;;11.26;88.15
49945;BME280;35838;49.134;9.212;2023-02-17T21:50:39;100796.22;;;11.24;88.10
49945;BME280;35838;49.134;9.212;2023-02-17T21:52:13;100796.25;;;11.27;88.01
49945;BME280;35838;49.134;9.212;2023-02-17T21:53:49;100798.00;;;11.28;87.95
49945;BME280;35838;49.134;9.212;2023-02-17T21:55:23;100796.28;;;11.31;87.81
49945;BME280;35838;49.134;9.212;2023-02-17T21:56:57;100798.88;;;11.32;87.72
49945;BME280;35838;49.134;9.212;2023-02-17T21:58:30;100814.47;;;11.31;87.68
49945;BME280;35838;49.134;9.212;2023-02-17T22:00:02;100795.41;;;11.30;87.63
49945;BME280;35838;49.134;9.212;2023-02-17T22:01:36;100813.63;;;11.32;87.38
49945;BME280;35838;49.134;9.212;2023-02-17T22:03:10;100811.03;;;11.32;87.45
49945;BME280;35838;49.134;9.212;2023-02-17T22:04:43;100804.97;;;11.36;87.24
49945;BME280;35838;49.134;9.212;2023-02-17T22:06:17;100801.47;;;11.32;87.12
49945;BME280;35838;49.134;9.212;2023-02-17T22:07:51;100796.31;;;11.35;87.05
49945;BME280;35838;49.134;9.212;2023-02-17T22:09:27;100804.16;;;11.40;86.65
49945;BME280;35838;49.134;9.212;2023-02-17T22:11:01;100794.59;;;11.40;86.32
49945;BME280;35838;49.134;9.212;2023-02-17T22:12:35;100804.16;;;11.41;86.00
49945;BME280;35838;49.134;9.212;2023-02-17T22:14:10;100804.19;;;11.44;85.63
49945;BME280;35838;49.134;9.212;2023-02-17T22:15:44;100799.84;;;11.45;85.69
49945;BME280;35838;49.134;9.212;2023-02-17T22:17:18;100803.34;;;11.50;85.39
49945;BME280;35838;49.134;9.212;2023-02-17T22:18:51;100803.38;;;11.56;85.18
49945;BME280;35838;49.134;9.212;2023-02-17T22:20:25;100803.38;;;11.56;84.78
49945;BME280;35838;49.134;9.212;2023-02-17T22:21:59;100798.19;;;11.59;84.57
49945;BME280;35838;49.134;9.212;2023-02-17T22:23:32;100794.69;;;11.54;84.27
49945;BME280;35838;49.134;9.212;2023-02-17T22:25:09;100801.63;;;11.55;84.18
49945;BME280;35838;49.134;9.212;2023-02-17T22:26:42;100803.41;;;11.63;84.12
49945;BME280;35838;49.134;9.212;2023-02-17T22:28:13;100793.91;;;11.66;83.74
49945;BME280;35838;49.134;9.212;2023-02-17T22:29:47;100799.06;;;11.62;83.65
49945;BME280;35838;49.134;9.212;2023-02-17T22:31:21;100802.53;;;11.60;83.75
49945;BME280;35838;49.134;9.212;2023-02-17T22:32:55;100794.75;;;11.64;83.57
49945;BME280;35838;49.134;9.212;2023-02-17T22:34:29;100795.63;;;11.63;83.46
49945;BME280;35838;49.134;9.212;2023-02-17T22:36:03;100786.13;;;11.69;83.25
49945;BME280;35838;49.134;9.212;2023-02-17T22:37:37;100784.38;;;11.70;82.81
49945;BME280;35838;49.134;9.212;2023-02-17T22:39:11;100793.06;;;11.72;82.78
49945;BME280;35838;49.134;9.212;2023-02-17T22:40:47;100787.88;;;11.76;82.66
49945;BME280;35838;49.134;9.212;2023-02-17T22:42:21;100796.53;;;11.77;82.16
49945;BME280;35838;49.134;9.212;2023-02-17T22:43:55;100793.13;;;11.80;81.91
49945;BME280;35838;49.134;9.212;2023-02-17T22:45:28;100791.38;;;11.80;81.98
49945;BME280;35838;49.134;9.212;2023-02-17T22:47:02;100792.22;;;11.78;81.92